Time;durP1;ratioP1;P1;durP2;ratioP2;P2;SDS_P1;SDS_P2;PMS_P1;PMS_P2;Temp;Humidity;BMP_temperature;BMP_pressure;BME280_temperature;BME280_humidity;BME280_pressure;Samples;Min_cycle;Max_cycle;Signal;HPM_P1;HPM_P2
2022/08/18 00:02:15;;;;;;;20.45;18.15;;;;;;;20.24;100.00;98448.39;2202771;81;20951;-88
2022/08/18 00:05:16;;;;;;;19.87;17.10;;;;;;;20.22;100.00;98459.00;2198510;79;20959;-89
2022/08/18 00:08:17;;;;;;;20.37;18.40;;;;;;;20.23;100.00;98457.95;2190141;81;20971;-89
2022/08/18 00:11:17;;;;;;;21.80;18.12;;;;;;;20.26;100.00;98457.44;2190286;81;21561;-89
2022/08/18 00:14:18;;;;;;;21.45;18.45;;;;;;;20.27;100.00;98465.69;2193121;79;20986;-89
2022/08/18 00:17:19;;;;;;;20.40;18.20;;;;;;;20.30;100.00;98479.30;2203265;80;21488;-89
2022/08/18 00:20:19;;;;;;;25.20;19.70;;;;;;;20.31;100.00;98491.55;2202540;81;21009;-88
2022/08/18 00:23:20;;;;;;;24.55;19.02;;;;;;;20.30;100.00;98494.42;2202774;81;20982;-89
2022/08/18 00:26:21;;;;;;;24.98;18.82;;;;;;;20.28;100.00;98488.03;2199526;79;20986;-88
2022/08/18 00:29:22;;;;;;;21.82;18.05;;;;;;;20.30;100.00;98488.61;2197601;81;20986;-88
2022/08/18 00:32:23;;;;;;;20.05;17.55;;;;;;;20.29;100.00;98494.15;2197640;80;20994;-89
2022/08/18 00:35:26;;;;;;;24.15;19.30;;;;;;;20.27;100.00;98498.91;2200137;79;21505;-89
2022/08/18 00:38:27;;;;;;;20.23;17.98;;;;;;;20.25;100.00;98503.16;2203453;79;21074;-88
2022/08/18 00:41:28;;;;;;;22.50;18.52;;;;;;;20.24;100.00;98498.89;2202648;81;20985;-88
2022/08/18 00:44:29;;;;;;;20.15;18.17;;;;;;;20.25;100.00;98497.03;2195539;81;21022;-89
2022/08/18 00:47:29;;;;;;;20.27;18.12;;;;;;;20.25;100.00;98495.18;2202727;81;20962;-89
2022/08/18 00:50:30;;;;;;;19.70;17.65;;;;;;;20.22;100.00;98490.37;2214150;79;20966;-90
2022/08/18 00:53:32;;;;;;;19.85;17.48;;;;;;;20.16;100.00;98490.02;2203563;80;21532;-89
2022/08/18 00:56:33;;;;;;;19.20;17.30;;;;;;;19.98;100.00;98500.94;2199735;80;21070;-89
2022/08/18 00:59:33;;;;;;;19.55;17.07;;;;;;;19.76;100.00;98503.05;2194946;79;21080;-88
2022/08/18 01:02:34;;;;;;;21.35;19.32;;;;;;;19.57;100.00;98493.20;2192948;80;21128;-89
2022/08/18 01:05:39;;;;;;;20.20;17.98;;;;;;;19.42;100.00;98486.81;2197035;80;21109;-89
2022/08/18 01:08:40;;;;;;;22.85;18.20;;;;;;;19.33;100.00;98484.56;2199589;81;21038;-89
2022/08/18 01:11:42;;;;;;;20.57;18.37;;;;;;;19.23;100.00;98481.75;2185853;79;21046;-88
2022/08/18 01:14:42;;;;;;;21.37;18.82;;;;;;;19.19;100.00;98486.44;2172210;82;21566;-87
2022/08/18 01:25:58;;;;;;;25.70;21.90;;;;;;;19.25;100.00;98492.92;2171635;80;21033;-88
2022/08/18 01:27:30;;;;;;;20.75;18.62;;;;;;;19.30;100.00;98486.38;2195989;81;20997;-89
2022/08/18 01:30:30;;;;;;;21.42;19.25;;;;;;;19.32;100.00;98482.16;2205989;78;21026;-90
2022/08/18 01:33:35;;;;;;;21.33;19.00;;;;;;;19.24;100.00;98476.72;2206650;78;21007;-89
2022/08/18 01:36:39;;;;;;;20.85;18.75;;;;;;;19.14;100.00;98471.77;2164836;80;20995;-88
2022/08/18 01:39:40;;;;;;;24.40;19.23;;;;;;;19.09;100.00;98469.83;2211867;80;21042;-89
2022/08/18 01:42:45;;;;;;;22.40;19.55;;;;;;;19.06;100.00;98473.49;2211296;80;21006;-88
2022/08/18 01:45:43;;;;;;;21.20;19.10;;;;;;;19.03;100.00;98472.94;2191677;79;21210;-89
2022/08/18 01:48:44;;;;;;;21.77;19.57;;;;;;;18.99;100.00;98471.78;2203174;80;21044;-90
2022/08/18 01:51:45;;;;;;;22.67;20.40;;;;;;;18.96;100.00;98462.98;2195396;80;21069;-89
2022/08/18 01:54:46;;;;;;;22.02;19.62;;;;;;;18.95;100.00;98466.69;2188355;80;21477;-89
2022/08/18 01:57:47;;;;;;;22.13;19.80;;;;;;;18.93;100.00;98467.98;2200934;81;21029;-90
2022/08/18 02:00:47;;;;;;;19.55;17.52;;;;;;;18.93;100.00;98468.78;2192868;81;20959;-88
2022/08/18 02:03:48;;;;;;;21.23;18.15;;;;;;;18.89;100.00;98466.31;2208468;80;21042;-89
2022/08/18 02:06:49;;;;;;;21.05;18.77;;;;;;;18.81;100.00;98465.37;2217328;80;21017;-90
2022/08/18 02:09:49;;;;;;;22.10;19.75;;;;;;;18.76;100.00;98466.63;2215290;79;21001;-89
2022/08/18 02:12:50;;;;;;;26.62;18.40;;;;;;;18.72;100.00;98465.47;2209295;79;21037;-89
2022/08/18 02:15:51;;;;;;;20.80;18.60;;;;;;;18.67;100.00;98471.50;2212422;80;21031;-88
2022/08/18 02:18:52;;;;;;;22.50;19.98;;;;;;;18.62;100.00;98470.03;2198374;81;21041;-89
2022/08/18 02:21:53;;;;;;;22.40;20.00;;;;;;;18.61;100.00;98469.76;2199539;80;21632;-89
2022/08/18 02:24:53;;;;;;;21.00;18.82;;;;;;;18.58;100.00;98471.56;2195939;81;21041;-89
2022/08/18 02:27:54;;;;;;;22.62;18.35;;;;;;;18.58;100.00;98471.56;2189062;81;21489;-90
2022/08/18 02:30:57;;;;;;;24.55;20.90;;;;;;;18.54;100.00;98474.39;2213169;79;20970;-89
2022/08/18 02:33:58;;;;;;;22.07;19.62;;;;;;;18.51;100.00;98476.20;2211943;79;20947;-88
2022/08/18 02:36:59;;;;;;;25.20;21.12;;;;;;;18.53;100.00;98476.77;2208998;80;21607;-90
2022/08/18 02:43:10;;;;;;;21.12;18.92;;;;;;;18.60;100.00;98470.00;2176867;80;22412;-88
2022/08/18 02:46:10;;;;;;;21.23;18.95;;;;;;;18.57;100.00;98463.86;2182169;82;21002;-88
2022/08/18 02:49:11;;;;;;;21.85;19.65;;;;;;;18.45;100.00;98459.90;2182074;82;21457;-88
2022/08/18 02:52:12;;;;;;;23.50;20.50;;;;;;;18.39;100.00;98458.22;2181928;82;21501;-88
2022/08/18 02:55:13;;;;;;;24.02;20.00;;;;;;;18.34;100.00;98458.10;2181639;82;21544;-88
2022/08/18 02:58:13;;;;;;;25.72;21.07;;;;;;;18.23;100.00;98461.08;2181796;82;20998;-89
2022/08/18 03:01:14;;;;;;;28.15;22.35;;;;;;;18.10;100.00;98455.50;2182075;82;21009;-88
2022/08/18 03:04:15;;;;;;;24.92;21.40;;;;;;;18.04;100.00;98454.33;2182091;82;21066;-89
2022/08/18 03:07:16;;;;;;;23.62;21.15;;;;;;;18.02;100.00;98453.24;2182846;82;21535;-89
2022/08/18 03:10:17;;;;;;;24.65;21.80;;;;;;;18.02;100.00;98459.87;2182069;82;20999;-89
2022/08/18 03:13:18;;;;;;;23.87;21.37;;;;;;;18.06;100.00;98472.92;2182157;82;21005;-88
2022/08/18 03:16:20;;;;;;;23.07;20.77;;;;;;;18.08;100.00;98474.00;2182006;82;21500;-90
2022/08/18 03:19:21;;;;;;;24.12;20.52;;;;;;;18.06;100.00;98469.47;2182193;82;21022;-89
2022/08/18 03:22:22;;;;;;;26.35;22.30;;;;;;;18.05;100.00;98469.19;2182064;82;20992;-89
2022/08/18 03:25:22;;;;;;;23.00;20.48;;;;;;;18.08;100.00;98479.30;2182113;82;20990;-89
2022/08/18 03:28:23;;;;;;;29.82;20.48;;;;;;;18.11;100.00;98478.34;2182012;82;20979;-89
2022/08/18 03:31:24;;;;;;;20.08;18.12;;;;;;;18.09;100.00;98472.44;2182230;82;21045;-89
2022/08/18 03:34:24;;;;;;;22.35;20.00;;;;;;;18.06;100.00;98476.09;2181906;82;21022;-88
2022/08/18 03:37:25;;;;;;;23.22;20.90;;;;;;;18.01;100.00;98478.09;2181880;82;21037;-88
2022/08/18 03:40:26;;;;;;;22.37;20.05;;;;;;;17.99;100.00;98486.00;2182024;82;21010;-89
2022/08/18 03:43:30;;;;;;;21.90;19.70;;;;;;;17.97;100.00;98492.05;2181681;82;21069;-88
2022/08/18 03:46:30;;;;;;;27.73;22.05;;;;;;;17.97;100.00;98491.53;2182021;80;21082;-88
2022/08/18 03:49:32;;;;;;;24.65;21.85;;;;;;;18.04;100.00;98488.77;2182111;82;21489;-88
2022/08/18 03:52:33;;;;;;;24.32;21.62;;;;;;;18.11;100.00;98494.75;2182274;82;21537;-89
2022/08/18 03:55:33;;;;;;;25.17;21.95;;;;;;;18.19;100.00;98496.49;2182268;82;21018;-89
2022/08/18 03:58:35;;;;;;;26.73;20.80;;;;;;;18.24;100.00;98497.13;2182203;82;21017;-90
2022/08/18 04:01:38;;;;;;;23.62;19.50;;;;;;;18.33;100.00;98502.35;2182668;82;21064;-90
2022/08/18 04:04:38;;;;;;;21.52;19.20;;;;;;;18.33;100.00;98499.70;2182069;82;20986;-90
2022/08/18 04:07:39;;;;;;;22.58;18.60;;;;;;;18.44;100.00;98500.70;2181698;82;21544;-89
2022/08/18 04:10:40;;;;;;;22.05;19.98;;;;;;;18.56;100.00;98494.87;2181691;82;21516;-88
2022/08/18 04:13:40;;;;;;;21.33;19.20;;;;;;;18.79;100.00;98499.81;2181520;82;21070;-89
2022/08/18 04:16:41;;;;;;;23.83;18.73;;;;;;;19.15;100.00;98502.57;2175652;82;22073;-90
2022/08/18 04:19:42;;;;;;;20.92;18.82;;;;;;;19.55;100.00;98504.54;2181982;82;21544;-90
2022/08/18 04:22:45;;;;;;;19.75;17.75;;;;;;;19.93;100.00;98504.31;2182095;82;21450;-90
2022/08/18 04:25:45;;;;;;;23.05;19.40;;;;;;;20.39;100.00;98512.38;2182721;80;21510;-90
2022/08/18 04:28:46;;;;;;;31.00;20.35;;;;;;;20.81;100.00;98515.79;2182605;82;21026;-90
2022/08/18 04:31:49;;;;;;;23.42;21.05;;;;;;;21.23;100.00;98515.14;2182009;82;21011;-90
2022/08/18 04:34:51;;;;;;;22.32;20.32;;;;;;;21.70;100.00;98525.92;2181628;81;21035;-90
2022/08/18 04:37:52;;;;;;;21.33;19.07;;;;;;;22.14;100.00;98529.69;2182588;82;21037;-89
2022/08/18 04:40:55;;;;;;;22.45;17.82;;;;;;;22.53;100.00;98535.45;2182364;82;21019;-90
2022/08/18 04:43:56;;;;;;;20.57;18.60;;;;;;;22.81;100.00;98535.55;2182033;82;21103;-87
2022/08/18 04:46:57;;;;;;;19.45;17.62;;;;;;;22.95;100.00;98527.85;2182181;82;21098;-88
2022/08/18 04:49:57;;;;;;;19.60;17.60;;;;;;;23.05;100.00;98519.09;2182453;82;20986;-92
2022/08/18 04:56:24;;;;;;;20.62;18.57;;;;;;;23.50;100.00;98531.13;2182397;82;21013;-89
2022/08/18 04:59:24;;;;;;;18.57;16.82;;;;;;;23.73;100.00;98526.32;2182225;80;20998;-89
2022/08/18 05:02:25;;;;;;;19.37;17.55;;;;;;;23.94;100.00;98529.75;2182218;82;21026;-89
2022/08/18 05:05:26;;;;;;;19.42;17.37;;;;;;;24.12;100.00;98529.97;2182175;82;21631;-89
2022/08/18 05:08:27;;;;;;;18.92;17.17;;;;;;;24.32;100.00;98533.69;2182281;82;21481;-89
2022/08/18 05:11:27;;;;;;;22.65;18.02;;;;;;;24.48;100.00;98531.76;2182837;82;21022;-86
2022/08/18 05:14:28;;;;;;;21.42;17.75;;;;;;;24.56;100.00;98527.17;2183018;82;21060;-86
2022/08/18 05:17:29;;;;;;;19.70;17.75;;;;;;;24.63;100.00;98523.67;2182581;82;20998;-89
2022/08/18 05:20:29;;;;;;;18.73;16.80;;;;;;;24.73;100.00;98515.58;2182717;82;20975;-91
2022/08/18 05:23:30;;;;;;;17.32;15.35;;;;;;;24.70;100.00;98523.37;2182381;82;20994;-91
2022/08/18 05:26:31;;;;;;;19.73;17.82;;;;;;;24.68;100.00;98528.44;2182523;82;20994;-86
2022/08/18 05:29:35;;;;;;;19.55;17.50;;;;;;;24.68;100.00;98531.66;2182332;82;21041;-89
2022/08/18 05:35:40;;;;;;;18.17;16.30;;;;;;;24.63;100.00;98522.33;2043288;86;21632;-82
2022/08/18 05:38:41;;;;;;;23.02;17.17;;;;;;;24.64;100.00;98527.94;2047599;87;20997;-86
2022/08/18 05:41:42;;;;;;;17.55;15.55;;;;;;;24.70;100.00;98530.06;2036757;87;21523;-84
2022/08/18 05:44:43;;;;;;;18.75;16.67;;;;;;;24.80;100.00;98522.78;2030506;88;21067;-86
2022/08/18 05:47:44;;;;;;;18.85;16.77;;;;;;;24.93;100.00;98532.06;2030213;87;21079;-86
2022/08/18 05:50:44;;;;;;;17.45;14.43;;;;;;;25.04;100.00;98526.92;2030250;88;21020;-86
2022/08/18 05:57:04;;;;;;;19.15;16.20;;;;;;;25.00;100.00;98529.87;2030335;87;21028;-86
2022/08/18 06:00:05;;;;;;;19.02;17.07;;;;;;;24.95;100.00;98533.38;2030436;88;21032;-85
2022/08/18 06:03:07;;;;;;;17.50;15.90;;;;;;;25.13;100.00;98540.53;2030312;88;21055;-84
2022/08/18 06:06:08;;;;;;;18.32;16.42;;;;;;;25.26;100.00;98543.94;2030302;88;21042;-85
2022/08/18 06:09:09;;;;;;;19.60;15.53;;;;;;;25.28;100.00;98535.61;2030337;88;21012;-84
2022/08/18 06:12:09;;;;;;;17.23;15.43;;;;;;;25.32;100.00;98545.48;2029922;88;20977;-86
2022/08/18 06:15:10;;;;;;;17.45;15.75;;;;;;;25.39;100.00;98540.61;2030303;88;21510;-86
2022/08/18 06:18:11;;;;;;;18.85;16.52;;;;;;;25.53;100.00;98540.23;2030174;88;21527;-85
2022/08/18 06:21:11;;;;;;;17.23;15.40;;;;;;;25.63;100.00;98543.91;2030298;88;21071;-86
2022/08/18 06:24:12;;;;;;;17.70;16.12;;;;;;;25.74;100.00;98547.58;2030139;88;21036;-86
2022/08/18 06:27:13;;;;;;;17.62;15.80;;;;;;;25.88;100.00;98545.05;2030129;88;21067;-85
2022/08/18 06:30:14;;;;;;;18.62;15.03;;;;;;;25.99;100.00;98544.41;2030699;88;21020;-86
2022/08/18 06:33:15;;;;;;;16.40;14.80;;;;;;;26.12;100.00;98539.70;2030037;88;21063;-86
2022/08/18 06:36:16;;;;;;;15.85;14.35;;;;;;;26.18;100.00;98545.27;2030354;88;21299;-86
2022/08/18 06:39:16;;;;;;;17.10;15.23;;;;;;;26.17;100.00;98547.70;2115004;82;21014;-86
2022/08/18 06:42:17;;;;;;;16.37;14.68;;;;;;;26.17;100.00;98543.67;2171361;81;21051;-92
2022/08/18 06:45:18;;;;;;;16.05;14.43;;;;;;;26.20;100.00;98550.34;2184943;81;20998;-87
2022/08/18 06:48:19;;;;;;;17.80;14.15;;;;;;;26.09;100.00;98551.01;2184911;81;21480;-86
2022/08/18 06:51:20;;;;;;;16.23;14.63;;;;;;;26.03;100.00;98552.13;2185152;81;22021;-86
2022/08/18 06:54:21;;;;;;;20.90;14.70;;;;;;;25.99;100.00;98563.19;2184813;81;21572;-86
2022/08/18 06:57:22;;;;;;;16.82;15.08;;;;;;;26.02;100.00;98558.04;2185204;81;21018;-84
2022/08/18 07:00:23;;;;;;;16.77;15.15;;;;;;;26.07;100.00;98559.34;2186364;81;21584;-90
2022/08/18 07:03:26;;;;;;;15.08;13.65;;;;;;;26.10;100.00;98557.97;2182218;81;21066;-92
2022/08/18 07:06:27;;;;;;;14.87;13.28;;;;;;;26.10;100.00;98557.97;2185532;81;21001;-91
2022/08/18 07:09:27;;;;;;;15.90;14.28;;;;;;;26.20;100.00;98562.42;2186108;81;20966;-92
2022/08/18 07:12:28;;;;;;;14.60;13.18;;;;;;;26.17;100.00;98569.16;2185817;81;21006;-90
2022/08/18 07:15:32;;;;;;;15.13;12.65;;;;;;;26.11;100.00;98564.92;2185997;81;21513;-88
2022/08/18 07:18:33;;;;;;;22.75;13.78;;;;;;;26.14;100.00;98567.58;2186199;81;21038;-90
2022/08/18 07:21:34;;;;;;;13.68;12.35;;;;;;;26.17;100.00;98569.70;2185004;81;20998;-88
2022/08/18 07:24:36;;;;;;;15.38;13.28;;;;;;;26.14;100.00;98571.60;2185161;81;21080;-85
2022/08/18 07:27:37;;;;;;;18.25;14.00;;;;;;;26.15;100.00;98578.05;2185025;81;21524;-87
2022/08/18 07:30:37;;;;;;;15.70;12.53;;;;;;;26.12;100.00;98571.89;2185309;81;20997;-88
2022/08/18 07:33:38;;;;;;;13.72;12.23;;;;;;;26.20;100.00;98565.11;2185486;81;21080;-87
2022/08/18 07:36:40;;;;;;;14.00;12.60;;;;;;;26.30;100.00;98567.67;2185444;81;21469;-84
2022/08/18 07:39:40;;;;;;;14.78;13.35;;;;;;;26.38;100.00;98570.31;2185195;81;21466;-86
2022/08/18 07:42:42;;;;;;;14.65;13.18;;;;;;;26.44;100.00;98563.80;2185713;81;20961;-86
2022/08/18 07:45:43;;;;;;;15.00;13.10;;;;;;;26.54;100.00;98567.70;2185365;81;21018;-88
2022/08/18 07:48:45;;;;;;;14.95;13.35;;;;;;;26.62;100.00;98575.92;2185441;81;21525;-88
2022/08/18 07:51:46;;;;;;;13.80;12.40;;;;;;;26.60;100.00;98574.05;2185206;81;20998;-87
2022/08/18 07:54:47;;;;;;;15.68;14.10;;;;;;;26.63;100.00;98574.84;2185169;81;21529;-89
2022/08/18 07:57:47;;;;;;;15.25;13.75;;;;;;;26.61;100.00;98582.93;2185333;81;20978;-88
2022/08/18 08:00:48;;;;;;;16.15;14.55;;;;;;;26.59;100.00;98577.82;2185651;81;21048;-91
2022/08/18 08:03:50;;;;;;;14.40;13.10;;;;;;;26.56;100.00;98573.04;2187092;81;20974;-88
2022/08/18 08:06:51;;;;;;;13.80;12.18;;;;;;;26.61;100.00;98576.22;2187702;81;21470;-86
2022/08/18 08:09:53;;;;;;;15.53;13.15;;;;;;;26.64;100.00;98574.30;2172398;81;21015;-89
2022/08/18 08:12:54;;;;;;;14.65;13.15;;;;;;;26.70;100.00;98573.16;2185837;81;21585;-84
2022/08/18 08:15:56;;;;;;;16.02;13.18;;;;;;;26.55;100.00;98567.96;2186080;81;21005;-89
2022/08/18 08:18:57;;;;;;;16.02;14.18;;;;;;;26.60;100.00;98569.22;2154939;81;21603;-90
2022/08/18 08:21:57;;;;;;;14.18;12.68;;;;;;;26.62;100.00;98570.55;2185474;81;20967;-90
2022/08/18 08:24:58;;;;;;;17.12;12.98;;;;;;;26.68;100.00;98574.50;2185318;81;21036;-89
2022/08/18 08:27:59;;;;;;;16.20;14.53;;;;;;;26.73;100.00;98571.22;2185429;81;20974;-90
2022/08/18 08:31:00;;;;;;;12.82;11.55;;;;;;;26.84;100.00;98563.83;2185493;81;21025;-89
2022/08/18 08:34:01;;;;;;;12.68;11.60;;;;;;;26.82;100.00;98570.83;2154252;81;21089;-90
2022/08/18 08:37:02;;;;;;;13.58;11.57;;;;;;;26.82;100.00;98566.01;2185478;81;20950;-90
2022/08/18 08:40:05;;;;;;;15.30;12.15;;;;;;;26.85;100.00;98576.16;2185432;81;21050;-91
2022/08/18 08:43:05;;;;;;;14.05;12.03;;;;;;;26.96;100.00;98566.88;2185385;81;21565;-89
2022/08/18 08:46:07;;;;;;;13.15;11.95;;;;;;;26.93;100.00;98574.17;2185339;81;21484;-91
2022/08/18 08:49:07;;;;;;;14.58;13.35;;;;;;;26.75;100.00;98566.36;2185658;81;21027;-91
2022/08/18 08:52:08;;;;;;;14.30;13.00;;;;;;;26.81;100.00;98562.52;2185449;81;21042;-91
2022/08/18 08:55:09;;;;;;;14.53;12.53;;;;;;;26.97;100.00;98552.89;2185336;81;21026;-92
2022/08/18 08:58:09;;;;;;;11.95;10.80;;;;;;;27.05;100.00;98559.79;2185099;81;21355;-90
2022/08/18 09:01:10;;;;;;;13.28;11.35;;;;;;;27.15;100.00;98561.53;2185479;81;21140;-87
2022/08/18 09:04:11;;;;;;;15.25;12.80;;;;;;;27.30;100.00;98564.55;2185993;81;20990;-90
2022/08/18 09:07:12;;;;;;;13.45;12.15;;;;;;;27.52;100.00;98570.64;2185903;81;21017;-90
2022/08/18 09:10:13;;;;;;;13.88;12.63;;;;;;;27.69;100.00;98565.00;2185536;81;21009;-92
2022/08/18 09:13:13;;;;;;;12.78;11.68;;;;;;;27.77;100.00;98551.42;2185796;81;22312;-90
2022/08/18 09:16:14;;;;;;;12.95;11.63;;;;;;;27.79;100.00;98551.92;2185770;81;21049;-89
2022/08/18 09:19:15;;;;;;;12.88;11.65;;;;;;;27.80;100.00;98562.13;2185728;81;21089;-88
2022/08/18 09:22:16;;;;;;;14.40;13.03;;;;;;;27.83;100.00;98563.70;2185398;81;20993;-88
2022/08/18 09:25:17;;;;;;;13.65;12.20;;;;;;;27.90;100.00;98574.89;2185555;81;21000;-90
2022/08/18 09:28:17;;;;;;;12.28;11.12;;;;;;;28.01;100.00;98576.84;2185335;81;20998;-86
2022/08/18 09:31:18;;;;;;;14.03;12.73;;;;;;;28.16;100.00;98576.55;2185453;81;21041;-84
2022/08/18 09:34:20;;;;;;;13.68;12.37;;;;;;;28.33;100.00;98578.68;2185255;81;21064;-87
2022/08/18 09:37:21;;;;;;;12.37;11.15;;;;;;;28.39;100.00;98576.70;2185296;81;21109;-88
2022/08/18 09:43:41;;;;;;;12.28;11.03;;;;;;;28.40;100.00;98583.67;2185457;81;20991;-86
2022/08/18 09:46:42;;;;;;;13.50;11.57;;;;;;;28.48;100.00;98584.33;2185366;81;21010;-83
2022/08/18 09:49:45;;;;;;;11.28;10.00;;;;;;;28.56;100.00;98582.28;2185859;81;20971;-86
2022/08/18 09:52:45;;;;;;;15.63;11.73;;;;;;;28.62;100.00;98577.02;2185579;81;21585;-84
2022/08/18 09:55:46;;;;;;;14.70;13.40;;;;;;;28.54;100.00;98580.45;2185580;81;21053;-83
2022/08/18 09:58:47;;;;;;;11.33;10.05;;;;;;;28.66;100.00;98579.38;2186111;81;21481;-87
2022/08/18 10:01:48;;;;;;;11.60;10.58;;;;;;;28.81;100.00;98580.97;2185716;81;21021;-86
2022/08/18 10:04:49;;;;;;;11.63;10.65;;;;;;;28.71;100.00;98585.20;2185497;81;21002;-85
2022/08/18 10:07:54;;;;;;;13.05;11.57;;;;;;;28.51;100.00;98585.86;2185440;81;21033;-86
2022/08/18 10:10:55;;;;;;;12.98;11.73;;;;;;;28.37;100.00;98573.52;2185529;81;21046;-84
2022/08/18 10:13:56;;;;;;;13.00;11.70;;;;;;;28.31;100.00;98576.84;2185377;81;21014;-84
2022/08/18 10:16:57;;;;;;;15.05;13.58;;;;;;;28.40;100.00;98579.09;2185434;81;20974;-83
2022/08/18 10:20:01;;;;;;;15.45;12.85;;;;;;;28.64;100.00;98578.09;2185513;81;21516;-84
2022/08/18 10:23:00;;;;;;;13.18;11.83;;;;;;;28.80;100.00;98572.61;2184918;81;21018;-84
2022/08/18 10:26:01;;;;;;;13.50;12.10;;;;;;;28.88;100.00;98575.94;2185528;81;20962;-83
2022/08/18 10:29:02;;;;;;;15.15;13.58;;;;;;;28.96;100.00;98578.50;2185377;81;21013;-85
2022/08/18 10:32:07;;;;;;;11.40;10.50;;;;;;;28.92;100.00;98587.75;2185253;81;20974;-84
2022/08/18 10:35:06;;;;;;;11.63;10.53;;;;;;;28.81;100.00;98589.05;2185342;81;21619;-85
2022/08/18 10:38:07;;;;;;;11.40;10.28;;;;;;;28.62;100.00;98583.75;2185365;81;21034;-82
2022/08/18 10:41:07;;;;;;;11.50;10.50;;;;;;;28.50;100.00;98580.78;2185552;81;22145;-87
2022/08/18 10:44:08;;;;;;;23.95;13.18;;;;;;;28.37;100.00;98578.90;2185481;81;21002;-84
2022/08/18 10:47:09;;;;;;;12.15;11.15;;;;;;;28.27;100.00;98568.55;2185238;81;21005;-86
2022/08/18 10:50:10;;;;;;;12.23;11.03;;;;;;;28.39;100.00;98566.73;2185073;81;21066;-83
2022/08/18 10:53:10;;;;;;;11.83;10.72;;;;;;;28.54;100.00;98562.94;2185207;81;21025;-85
2022/08/18 10:56:11;;;;;;;11.83;10.82;;;;;;;28.60;100.00;98569.25;2185144;81;21002;-83
2022/08/18 10:59:12;;;;;;;11.90;11.00;;;;;;;28.60;100.00;98560.37;2185620;81;21021;-83
2022/08/18 11:02:13;;;;;;;14.90;12.85;;;;;;;28.65;100.00;98564.32;2185285;81;21065;-84
2022/08/18 11:05:14;;;;;;;12.82;11.68;;;;;;;28.76;100.00;98554.13;2185198;81;21021;-83
2022/08/18 11:08:16;;;;;;;12.80;11.50;;;;;;;28.80;100.00;98552.41;2185237;81;20982;-87
2022/08/18 11:11:17;;;;;;;10.98;10.15;;;;;;;28.79;100.00;98550.27;2184912;81;21110;-83
2022/08/18 11:14:19;;;;;;;12.03;10.88;;;;;;;28.84;100.00;98544.78;2185274;81;20994;-83
2022/08/18 11:17:21;;;;;;;12.65;11.33;;;;;;;28.62;100.00;98544.70;2184936;81;21077;-83
2022/08/18 11:20:24;;;;;;;12.18;10.43;;;;;;;28.45;100.00;98536.47;2184646;81;21022;-82
2022/08/18 11:23:25;;;;;;;11.57;10.48;;;;;;;28.55;100.00;98538.40;2185833;81;21045;-84
2022/08/18 11:26:30;;;;;;;10.82;9.93;;;;;;;28.67;100.00;98537.87;2185698;81;21516;-87
2022/08/18 11:29:32;;;;;;;13.18;12.00;;;;;;;28.64;100.00;98530.96;2183322;81;21049;-89
2022/08/18 11:32:33;;;;;;;12.18;10.75;;;;;;;28.48;100.00;98521.84;2185557;81;21046;-89
2022/08/18 11:35:34;;;;;;;12.25;10.70;;;;;;;28.40;100.00;98523.89;2185455;81;21009;-87
2022/08/18 11:38:35;;;;;;;11.97;10.88;;;;;;;28.34;100.00;98522.39;2185895;81;21025;-90
2022/08/18 11:41:37;;;;;;;11.28;10.18;;;;;;;28.32;98.18;98511.13;2185459;81;21046;-85
2022/08/18 11:44:38;;;;;;;12.25;11.08;;;;;;;28.43;100.00;98519.25;2185163;81;21010;-87
2022/08/18 11:47:38;;;;;;;13.90;11.50;;;;;;;28.59;98.25;98511.65;2185378;81;21061;-86
2022/08/18 11:50:39;;;;;;;13.68;12.47;;;;;;;28.59;98.25;98511.65;2185268;81;20946;-85
2022/08/18 11:53:43;;;;;;;13.62;12.23;;;;;;;28.74;99.45;98511.33;2185386;81;21629;-87
2022/08/18 11:56:44;;;;;;;13.22;11.95;;;;;;;28.78;98.88;98503.42;2185155;81;21013;-85
2022/08/18 11:59:44;;;;;;;12.25;11.25;;;;;;;28.83;98.81;98494.69;2185533;81;21009;-85
2022/08/18 12:02:45;;;;;;;12.88;11.68;;;;;;;28.83;93.61;98492.00;2185313;81;21005;-86
2022/08/18 12:05:46;;;;;;;11.95;10.80;;;;;;;28.83;97.45;98492.00;2185057;81;21532;-86
2022/08/18 12:08:47;;;;;;;10.65;9.75;;;;;;;28.86;92.72;98490.59;2185118;81;21062;-89
2022/08/18 12:11:48;;;;;;;12.18;10.70;;;;;;;28.84;89.67;98488.20;2185308;81;21504;-90
2022/08/18 12:14:49;;;;;;;10.18;9.33;;;;;;;28.93;92.93;98479.42;2185372;81;21041;-88
2022/08/18 12:17:50;;;;;;;13.25;10.08;;;;;;;29.06;91.79;98477.21;2185424;81;21034;-86
2022/08/18 12:20:50;;;;;;;10.90;9.93;;;;;;;29.15;89.21;98474.03;2185284;81;21563;-83
2022/08/18 12:23:51;;;;;;;11.08;9.40;;;;;;;29.13;67.35;98470.30;2185405;81;20939;-85
2022/08/18 12:26:52;;;;;;;10.88;9.88;;;;;;;29.21;60.78;98472.02;2185215;81;21001;-83
2022/08/18 12:29:54;;;;;;;10.32;9.23;;;;;;;29.27;56.05;98460.02;2185348;81;21504;-84
2022/08/18 12:32:54;;;;;;;10.03;9.13;;;;;;;29.30;54.15;98460.18;2185311;81;21108;-82
2022/08/18 12:35:55;;;;;;;10.43;9.30;;;;;;;29.20;52.36;98448.86;2185296;81;21065;-84
2022/08/18 12:38:56;;;;;;;8.90;8.00;;;;;;;29.14;52.32;98456.27;2185222;81;21021;-85
2022/08/18 12:41:57;;;;;;;13.88;8.68;;;;;;;29.11;52.54;98456.89;2185254;81;20962;-86
2022/08/18 12:44:58;;;;;;;10.28;9.08;;;;;;;29.17;52.95;98455.67;2185064;81;21533;-86
2022/08/18 12:48:01;;;;;;;9.35;8.50;;;;;;;29.15;52.31;98446.52;2185152;81;20986;-86
2022/08/18 12:51:01;;;;;;;10.68;9.30;;;;;;;29.16;53.71;98444.62;2185357;81;21561;-87
2022/08/18 12:54:02;;;;;;;10.63;9.63;;;;;;;29.21;53.06;98438.32;2184936;81;21038;-86
2022/08/18 12:57:03;;;;;;;9.33;8.63;;;;;;;29.22;54.39;98425.08;2185170;81;21077;-86
2022/08/18 13:00:03;;;;;;;9.60;8.70;;;;;;;29.23;52.19;98422.63;2185120;81;21018;-86
2022/08/18 13:03:04;;;;;;;10.00;8.60;;;;;;;29.21;52.49;98424.29;2185020;81;21608;-86
2022/08/18 13:06:05;;;;;;;9.08;8.20;;;;;;;29.24;53.12;98419.62;2185359;81;21037;-86
2022/08/18 13:09:06;;;;;;;10.05;9.05;;;;;;;29.23;52.26;98415.34;2185496;81;21025;-85
2022/08/18 13:12:08;;;;;;;9.65;8.75;;;;;;;29.26;52.98;98421.48;2185411;81;20982;-85
2022/08/18 13:15:09;;;;;;;9.28;8.28;;;;;;;29.25;50.66;98417.16;2185257;81;21093;-86
2022/08/18 13:18:10;;;;;;;11.00;8.68;;;;;;;29.27;51.82;98421.72;2185370;81;21528;-86
2022/08/18 13:21:11;;;;;;;9.03;8.13;;;;;;;29.36;52.27;98428.51;2185320;81;20985;-86
2022/08/18 13:24:12;;;;;;;10.08;7.85;;;;;;;29.35;51.14;98425.02;2185510;81;21014;-85
2022/08/18 13:27:12;;;;;;;10.35;8.40;;;;;;;29.34;49.59;98429.34;2185218;81;20995;-85
2022/08/18 13:30:13;;;;;;;11.00;8.90;;;;;;;29.31;50.39;98413.80;2185458;81;20951;-86
2022/08/18 13:33:14;;;;;;;9.93;8.25;;;;;;;29.36;51.53;98421.20;2185310;81;21577;-83
2022/08/18 13:36:15;;;;;;;9.05;8.15;;;;;;;29.46;51.45;98426.89;2185616;81;21001;-87
2022/08/18 13:39:16;;;;;;;8.83;7.85;;;;;;;29.51;50.45;98425.42;2185241;81;21370;-84
2022/08/18 13:42:16;;;;;;;9.20;8.40;;;;;;;29.60;51.07;98422.20;2185376;81;21532;-86
2022/08/18 13:45:17;;;;;;;9.45;8.45;;;;;;;29.76;51.31;98426.64;2185048;81;20966;-87
2022/08/18 13:48:18;;;;;;;10.00;9.20;;;;;;;29.92;51.29;98426.46;2185114;81;21068;-89
2022/08/18 13:51:19;;;;;;;11.03;9.18;;;;;;;30.08;50.92;98432.78;2185389;81;20974;-84
2022/08/18 13:54:20;;;;;;;9.53;8.73;;;;;;;30.20;50.54;98431.08;2185495;81;20986;-86
2022/08/18 13:57:20;;;;;;;9.33;8.38;;;;;;;30.29;49.47;98442.69;2185419;81;21061;-84
2022/08/18 14:00:21;;;;;;;10.93;9.58;;;;;;;30.38;49.65;98442.70;2185972;81;20977;-86
2022/08/18 14:03:22;;;;;;;9.43;8.65;;;;;;;30.45;50.31;98444.39;2185957;81;21069;-87
2022/08/18 14:06:26;;;;;;;8.93;8.03;;;;;;;30.41;48.39;98448.81;2151614;80;21006;-86
2022/08/18 14:09:28;;;;;;;9.45;8.65;;;;;;;30.35;47.81;98447.38;2154634;80;21548;-83